createdAt,value
2022-12-08T00:01:24.125Z,80.68
2022-12-08T00:03:52.041Z,80.72
2022-12-08T00:06:49.499Z,80.62
2022-12-08T00:09:41.087Z,80.65
2022-12-08T00:12:12.817Z,81.14
2022-12-08T00:14:42.553Z,81.46
2022-12-08T00:17:11.564Z,81.92
2022-12-08T00:19:39.963Z,81.87
2022-12-08T00:22:09.903Z,81.79
2022-12-08T00:24:39.873Z,82.12
2022-12-08T00:27:09.253Z,82.30
2022-12-08T00:29:37.227Z,82.78
2022-12-08T00:32:05.688Z,83.01
2022-12-08T00:34:33.553Z,83.27
2022-12-08T00:37:00.802Z,83.57
2022-12-08T00:39:27.919Z,83.87
2022-12-08T00:42:13.048Z,84.04
2022-12-08T00:44:41.341Z,84.46
2022-12-08T00:47:08.428Z,85.17
2022-12-08T00:49:35.477Z,85.26
2022-12-08T00:52:02.584Z,85.67
2022-12-08T00:54:29.725Z,85.68
2022-12-08T00:56:56.862Z,85.95
2022-12-08T00:59:23.783Z,86.14
2022-12-08T01:01:51.164Z,86.27
2022-12-08T01:04:19.655Z,86.48
2022-12-08T01:06:47.984Z,86.79
2022-12-08T01:09:16.398Z,86.80
2022-12-08T01:11:44.788Z,86.85
2022-12-08T01:14:12.652Z,87.04
2022-12-08T01:16:41.817Z,87.02
2022-12-08T01:19:11.063Z,86.88
2022-12-08T01:21:38.239Z,86.92
2022-12-08T01:24:05.773Z,87.15
2022-12-08T01:26:32.977Z,87.45
2022-12-08T01:29:00.152Z,87.70
2022-12-08T01:31:27.495Z,88.23
2022-12-08T01:33:54.613Z,88.29
2022-12-08T01:36:27.717Z,88.52
2022-12-08T01:38:57.137Z,88.47
2022-12-08T01:41:27.262Z,88.59
2022-12-08T01:44:08.522Z,88.77
2022-12-08T01:46:38.874Z,89.05
2022-12-08T01:49:11.852Z,89.44
2022-12-08T01:51:44.104Z,89.70
2022-12-08T01:54:13.522Z,89.68
2022-12-08T01:56:50.823Z,89.95
2022-12-08T01:59:19.376Z,89.84
2022-12-08T02:01:51.469Z,89.72
2022-12-08T02:04:18.654Z,89.56
2022-12-08T02:06:47.766Z,89.83
2022-12-08T02:09:15.446Z,90.22
2022-12-08T02:11:42.433Z,90.23
2022-12-08T02:14:11.986Z,90.15
2022-12-08T02:16:43.456Z,89.70
2022-12-08T02:19:41.353Z,89.53
2022-12-08T02:22:36.716Z,89.22
2022-12-08T02:25:16.375Z,89.09
2022-12-08T02:28:03.718Z,89.25
2022-12-08T02:31:05.856Z,89.60
2022-12-08T02:34:17.700Z,90.04
2022-12-08T02:36:50.357Z,90.24
2022-12-08T02:39:52.949Z,90.85
2022-12-08T02:42:38.366Z,90.72
2022-12-08T02:45:30.696Z,90.89
2022-12-08T02:47:59.282Z,90.95
2022-12-08T02:50:27.468Z,91.33
2022-12-08T02:52:54.879Z,91.34
2022-12-08T02:55:24.757Z,91.07
2022-12-08T02:58:03.977Z,90.89
2022-12-08T03:00:41.528Z,90.62
2022-12-08T03:03:23.817Z,90.60
2022-12-08T03:06:15.713Z,90.40
2022-12-08T03:08:50.082Z,90.12
2022-12-08T03:11:29.218Z,90.18
2022-12-08T03:14:00.610Z,90.29
2022-12-08T03:16:30.114Z,90.50
2022-12-08T03:19:13.841Z,90.29
2022-12-08T03:21:41.544Z,90.35
2022-12-08T03:24:10.990Z,90.49
2022-12-08T03:26:53.396Z,90.29
2022-12-08T03:29:21.024Z,90.14
2022-12-08T03:31:56.134Z,90.05
2022-12-08T03:34:26.450Z,89.46
2022-12-08T03:36:53.953Z,89.06
2022-12-08T03:39:21.106Z,88.85
2022-12-08T03:41:48.135Z,88.90
2022-12-08T03:44:15.301Z,89.14
2022-12-08T03:46:42.264Z,89.15
2022-12-08T03:49:09.467Z,89.15
2022-12-08T03:51:36.664Z,89.42
2022-12-08T03:54:04.699Z,89.46
2022-12-08T03:56:35.216Z,89.63
2022-12-08T03:59:03.517Z,89.74
2022-12-08T04:01:30.848Z,89.80
2022-12-08T04:03:58.039Z,89.48
2022-12-08T04:06:26.546Z,89.85
2022-12-08T04:08:53.682Z,89.92
2022-12-08T04:11:21.548Z,89.86
2022-12-08T04:13:48.932Z,89.64
2022-12-08T04:16:25.094Z,89.31
2022-12-08T04:18:52.593Z,89.46
2022-12-08T04:21:20.096Z,89.30
2022-12-08T04:23:47.645Z,89.25
2022-12-08T04:26:15.289Z,89.13
2022-12-08T04:28:42.365Z,89.43
2022-12-08T04:31:09.351Z,89.29
2022-12-08T04:33:36.643Z,89.35
2022-12-08T04:36:05.084Z,89.00
2022-12-08T04:38:32.530Z,88.65
2022-12-08T04:41:00.944Z,88.35
2022-12-08T04:43:28.373Z,88.33
2022-12-08T04:45:55.462Z,88.19
2022-12-08T04:48:22.476Z,87.74
2022-12-08T04:50:49.660Z,87.70
2022-12-08T04:53:16.670Z,87.78
2022-12-08T04:55:45.247Z,87.57
2022-12-08T04:58:14.340Z,87.68
2022-12-08T05:00:41.903Z,87.83
2022-12-08T05:03:09.504Z,87.55
2022-12-08T05:05:36.737Z,87.42
2022-12-08T05:08:04.404Z,87.34
2022-12-08T05:10:32.381Z,87.07
2022-12-08T05:13:00.335Z,87.11
2022-12-08T05:15:27.982Z,86.67
2022-12-08T05:17:55.541Z,86.55
2022-12-08T05:20:22.788Z,86.17
2022-12-08T05:22:49.854Z,85.71
2022-12-08T05:25:17.108Z,85.16
2022-12-08T05:27:44.303Z,84.96
2022-12-08T05:30:11.750Z,85.03
2022-12-08T05:32:38.925Z,85.10
2022-12-08T05:35:06.543Z,85.03
2022-12-08T05:37:33.685Z,85.07
2022-12-08T05:40:01.017Z,85.35
2022-12-08T05:42:28.038Z,85.27
2022-12-08T05:44:55.026Z,85.83
2022-12-08T05:47:22.001Z,85.72
2022-12-08T05:49:49.117Z,85.60
2022-12-08T05:52:17.187Z,85.32
2022-12-08T05:54:44.598Z,85.21
2022-12-08T05:57:11.773Z,85.44
2022-12-08T05:59:39.743Z,85.23
2022-12-08T06:02:06.829Z,84.63
2022-12-08T06:04:33.917Z,83.97
2022-12-08T06:07:00.960Z,84.21
2022-12-08T06:09:27.973Z,83.96
2022-12-08T06:11:55.093Z,83.60
2022-12-08T06:14:22.155Z,83.18
2022-12-08T06:16:49.203Z,82.79
2022-12-08T06:19:16.546Z,82.80
2022-12-08T06:21:43.638Z,82.75
2022-12-08T06:24:10.789Z,82.71
2022-12-08T06:26:40.359Z,83.02
2022-12-08T06:29:07.897Z,83.06
2022-12-08T06:31:34.988Z,82.91
2022-12-08T06:34:02.109Z,82.89
2022-12-08T06:36:30.139Z,82.61
2022-12-08T06:38:57.497Z,82.53
2022-12-08T06:41:25.997Z,82.31
2022-12-08T06:43:56.253Z,82.02
2022-12-08T06:46:23.371Z,81.94
2022-12-08T06:48:50.854Z,81.36
2022-12-08T06:51:20.775Z,80.31
2022-12-08T06:53:48.560Z,80.28
2022-12-08T06:56:17.068Z,79.89
2022-12-08T06:58:48.935Z,79.40
2022-12-08T07:01:19.767Z,79.10
2022-12-08T07:03:47.893Z,78.87
2022-12-08T07:06:25.200Z,78.76
2022-12-08T07:08:52.633Z,78.01
2022-12-08T07:11:21.904Z,77.65
2022-12-08T07:13:50.701Z,77.40
2022-12-08T07:16:17.892Z,77.12
2022-12-08T07:18:44.891Z,76.71
2022-12-08T07:21:15.101Z,76.18
2022-12-08T07:23:43.320Z,75.69
2022-12-08T07:26:12.512Z,75.50
2022-12-08T07:28:41.322Z,75.43
2022-12-08T07:31:16.379Z,75.38
2022-12-08T07:33:43.550Z,74.93
2022-12-08T07:36:10.687Z,74.84
2022-12-08T07:38:37.733Z,74.58
2022-12-08T07:41:04.916Z,74.44
2022-12-08T07:43:32.203Z,73.97
2022-12-08T07:46:00.150Z,73.78
2022-12-08T07:48:27.138Z,71.91
2022-12-08T07:51:04.289Z,72.28
2022-12-08T07:53:32.265Z,72.71
2022-12-08T07:55:59.552Z,72.30
2022-12-08T07:58:27.694Z,71.84
2022-12-08T08:00:54.942Z,71.03
2022-12-08T08:03:22.532Z,72.36
2022-12-08T08:05:50.216Z,72.38
2022-12-08T08:08:18.275Z,71.83
2022-12-08T08:10:47.066Z,73.10
2022-12-08T08:13:14.253Z,72.97
2022-12-08T08:15:41.428Z,73.20
2022-12-08T08:18:08.551Z,73.69
2022-12-08T08:20:35.639Z,73.60
2022-12-08T08:23:02.658Z,73.68
2022-12-08T08:25:29.696Z,73.74
2022-12-08T08:27:56.819Z,73.37
2022-12-08T08:30:24.622Z,72.87
2022-12-08T08:32:52.450Z,72.35
2022-12-08T08:35:19.570Z,73.14
2022-12-08T08:37:49.419Z,72.55
2022-12-08T08:40:18.468Z,73.06
2022-12-08T08:42:45.508Z,71.39
2022-12-08T08:45:12.615Z,68.85
2022-12-08T08:47:39.551Z,68.01
2022-12-08T08:50:07.864Z,67.80
2022-12-08T08:52:35.149Z,66.75
2022-12-08T08:55:04.165Z,66.98
2022-12-08T08:57:31.872Z,65.96
2022-12-08T08:59:59.999Z,66.48
2022-12-08T09:02:27.012Z,65.85
2022-12-08T09:04:54.250Z,65.87
2022-12-08T09:07:21.373Z,65.54
2022-12-08T09:09:49.116Z,65.56
2022-12-08T09:12:16.205Z,64.82
2022-12-08T09:14:43.345Z,64.60
2022-12-08T09:17:10.451Z,64.21
2022-12-08T09:19:37.927Z,64.02
2022-12-08T09:22:06.046Z,63.70
2022-12-08T09:24:33.306Z,64.74
2022-12-08T09:27:00.367Z,65.15
2022-12-08T09:29:32.539Z,65.03
2022-12-08T09:32:03.282Z,64.62
2022-12-08T09:34:33.565Z,63.72
2022-12-08T09:37:00.598Z,63.67
2022-12-08T09:39:27.749Z,63.01
2022-12-08T09:42:04.192Z,62.55
2022-12-08T09:44:55.523Z,62.50
2022-12-08T09:47:32.252Z,60.54
2022-12-08T09:50:15.669Z,60.63
2022-12-08T09:52:56.796Z,59.42
2022-12-08T09:55:45.996Z,59.14
2022-12-08T09:58:21.743Z,58.52
2022-12-08T10:00:48.931Z,57.32
2022-12-08T10:03:17.053Z,57.15
2022-12-08T10:05:52.205Z,56.87
2022-12-08T10:08:29.560Z,56.09
2022-12-08T10:11:05.525Z,55.28
2022-12-08T10:13:58.166Z,54.93
2022-12-08T10:16:33.957Z,55.02
2022-12-08T10:19:18.896Z,54.31
2022-12-08T10:21:45.891Z,54.41
2022-12-08T10:24:37.531Z,53.63
2022-12-08T10:27:11.853Z,53.73
2022-12-08T10:29:40.603Z,53.89
2022-12-08T10:32:19.260Z,53.00
2022-12-08T10:35:07.896Z,53.60
2022-12-08T10:37:35.160Z,53.83
2022-12-08T10:40:17.505Z,53.25
2022-12-08T10:42:55.483Z,53.51
2022-12-08T10:45:27.793Z,53.30
2022-12-08T10:48:00.268Z,53.31
2022-12-08T10:50:42.852Z,53.20
2022-12-08T10:53:34.101Z,52.69
2022-12-08T10:56:04.355Z,52.07
2022-12-08T10:58:36.479Z,52.00
2022-12-08T11:01:14.060Z,51.71
2022-12-08T11:03:51.357Z,51.14
2022-12-08T11:06:20.713Z,51.08
2022-12-08T11:08:59.412Z,51.05
2022-12-08T11:11:50.852Z,50.69
2022-12-08T11:14:30.237Z,49.68
2022-12-08T11:17:07.597Z,49.46
2022-12-08T11:19:40.077Z,49.53
2022-12-08T11:22:45.783Z,49.04
2022-12-08T11:25:12.791Z,48.13
2022-12-08T11:27:43.687Z,47.60
2022-12-08T11:30:25.623Z,47.92
2022-12-08T11:32:56.805Z,48.12
2022-12-08T11:35:40.728Z,48.71
2022-12-08T11:38:27.684Z,48.40
2022-12-08T11:41:00.497Z,47.38
2022-12-08T11:44:13.747Z,48.45
2022-12-08T11:46:49.038Z,47.54
2022-12-08T11:49:16.101Z,47.93
2022-12-08T11:51:48.842Z,46.41
2022-12-08T11:54:33.014Z,47.12
2022-12-08T11:57:02.775Z,47.63
2022-12-08T11:59:33.298Z,47.33
2022-12-08T12:02:03.074Z,46.97
2022-12-08T12:04:36.148Z,46.61
2022-12-08T12:07:12.713Z,45.49
2022-12-08T12:10:07.277Z,46.05
2022-12-08T12:12:44.400Z,45.80
2022-12-08T12:15:52.676Z,45.89
2022-12-08T12:18:46.701Z,46.10
2022-12-08T12:21:19.667Z,45.05
2022-12-08T12:23:55.743Z,43.50
2022-12-08T12:26:29.810Z,43.85
2022-12-08T12:29:05.800Z,43.96
2022-12-08T12:31:37.103Z,44.46
2022-12-08T12:34:22.466Z,44.36
2022-12-08T12:37:12.677Z,42.74
2022-12-08T12:40:06.102Z,41.41
2022-12-08T12:42:39.248Z,41.28
2022-12-08T12:45:18.435Z,42.03
2022-12-08T12:48:13.259Z,41.04
2022-12-08T12:50:43.659Z,40.42
2022-12-08T12:53:16.941Z,39.71
2022-12-08T12:56:01.628Z,40.27
2022-12-08T12:58:28.662Z,39.85
2022-12-08T13:01:11.237Z,40.30
2022-12-08T13:03:39.333Z,40.91
2022-12-08T13:06:10.022Z,40.53
2022-12-08T13:08:51.318Z,39.61
2022-12-08T13:11:18.553Z,39.80
2022-12-08T13:14:05.015Z,40.70
2022-12-08T13:16:35.726Z,41.82
2022-12-08T13:19:11.948Z,42.27
2022-12-08T13:21:40.032Z,42.95
2022-12-08T13:24:28.363Z,43.19
2022-12-08T13:27:04.585Z,43.68
2022-12-08T13:29:35.893Z,43.39
2022-12-08T13:32:04.833Z,43.63
2022-12-08T13:34:52.024Z,44.05
2022-12-08T13:37:27.035Z,44.00
2022-12-08T13:42:50.755Z,43.93
2022-12-08T13:45:52.963Z,43.55
2022-12-08T13:49:09.672Z,43.24
2022-12-08T13:53:22.475Z,42.84
2022-12-08T13:55:58.710Z,42.39
2022-12-08T13:57:36.315Z,41.89
2022-12-08T14:00:17.141Z,41.80
2022-12-08T14:02:48.571Z,41.33
2022-12-08T14:05:20.378Z,41.40
2022-12-08T14:07:54.376Z,42.04
2022-12-08T14:10:28.479Z,42.29
2022-12-08T14:13:00.091Z,42.27
2022-12-08T14:15:31.271Z,42.60
2022-12-08T14:18:01.545Z,43.07
2022-12-08T14:20:51.989Z,43.22
2022-12-08T14:23:21.391Z,52.77
2022-12-08T14:25:48.812Z,60.23
2022-12-08T14:28:17.680Z,65.12
2022-12-08T14:30:44.973Z,69.79
2022-12-08T14:33:15.634Z,71.26
2022-12-08T14:35:42.768Z,72.33
2022-12-08T14:38:15.426Z,74.39
2022-12-08T14:40:48.530Z,75.55
2022-12-08T14:43:18.997Z,77.15
2022-12-08T14:45:46.062Z,78.62
2022-12-08T14:48:28.173Z,78.61
2022-12-08T14:51:04.642Z,78.87
2022-12-08T14:53:53.694Z,78.85
2022-12-08T14:56:33.671Z,79.02
2022-12-08T14:59:12.287Z,79.30
2022-12-08T15:01:40.599Z,79.80
2022-12-08T15:04:19.156Z,80.50
2022-12-08T15:07:07.159Z,81.14
2022-12-08T15:09:41.150Z,81.66
2022-12-08T15:12:13.824Z,81.86
2022-12-08T15:14:59.336Z,83.01
2022-12-08T15:17:31.799Z,84.05
2022-12-08T15:20:01.106Z,84.85
2022-12-08T15:22:30.889Z,85.03
2022-12-08T15:24:58.646Z,85.12
2022-12-08T15:27:26.414Z,86.29
2022-12-08T15:29:53.908Z,86.23
2022-12-08T15:32:23.524Z,86.38
2022-12-08T15:34:50.782Z,87.20
2022-12-08T15:37:26.658Z,87.29
2022-12-08T15:39:54.081Z,87.92
2022-12-08T15:42:21.109Z,87.67
2022-12-08T15:44:48.330Z,88.50
2022-12-08T15:47:19.337Z,90.00
2022-12-08T15:49:47.621Z,91.05
2022-12-08T15:52:16.992Z,90.96
2022-12-08T15:54:44.257Z,91.36
2022-12-08T15:58:24.878Z,91.53
2022-12-08T16:00:51.149Z,92.15
2022-12-08T16:04:02.737Z,92.00
2022-12-08T16:07:26.844Z,91.99
2022-12-08T16:09:13.168Z,92.13
2022-12-08T16:12:08.801Z,91.97
2022-12-08T16:17:25.849Z,92.64
2022-12-08T16:19:53.100Z,92.49
2022-12-08T16:25:20.213Z,93.15
2022-12-08T16:28:01.407Z,92.94
2022-12-08T16:30:30.566Z,93.32
2022-12-08T16:32:57.620Z,93.56
2022-12-08T16:35:24.722Z,93.44
2022-12-08T16:37:51.729Z,93.75
2022-12-08T16:40:19.011Z,93.51
2022-12-08T16:42:47.905Z,94.04
2022-12-08T16:45:17.915Z,94.12
2022-12-08T16:47:47.712Z,94.50
2022-12-08T16:50:21.396Z,94.49
2022-12-08T16:52:49.658Z,94.35
2022-12-08T16:55:19.432Z,94.33
2022-12-08T16:57:47.633Z,94.54
2022-12-08T17:00:17.985Z,94.59
2022-12-08T17:02:45.335Z,95.58
2022-12-08T17:05:15.180Z,95.35
2022-12-08T17:07:44.337Z,95.62
2022-12-08T17:10:16.013Z,95.41
2022-12-08T17:12:44.152Z,95.34
2022-12-08T17:15:15.423Z,95.64
2022-12-08T17:17:42.838Z,95.27
2022-12-08T17:20:14.066Z,95.98
2022-12-08T17:22:41.603Z,95.83
2022-12-08T17:25:09.292Z,95.85
2022-12-08T17:27:37.358Z,95.91
2022-12-08T17:30:06.370Z,95.77
2022-12-08T17:32:33.728Z,95.47
2022-12-08T17:35:00.865Z,95.40
2022-12-08T17:37:27.844Z,95.08
2022-12-08T17:39:54.925Z,94.89
2022-12-08T17:42:26.069Z,94.44
2022-12-08T17:44:54.071Z,94.22
2022-12-08T17:47:21.247Z,93.55
2022-12-08T17:49:48.946Z,93.19
2022-12-08T17:52:16.104Z,92.60
2022-12-08T17:54:43.565Z,91.56
2022-12-08T17:57:11.024Z,90.95
2022-12-08T17:59:38.151Z,90.97
2022-12-08T18:02:05.595Z,91.02
2022-12-08T18:04:32.798Z,90.52
2022-12-08T18:07:01.611Z,89.85
2022-12-08T18:09:31.017Z,89.53
2022-12-08T18:11:58.585Z,89.60
2022-12-08T18:14:25.767Z,89.42
2022-12-08T18:16:52.906Z,89.01
2022-12-08T18:19:20.030Z,85.27
2022-12-08T18:21:47.228Z,83.28
2022-12-08T18:24:22.303Z,82.80
2022-12-08T18:26:52.481Z,82.40
2022-12-08T18:29:21.797Z,81.65
2022-12-08T18:31:49.345Z,81.55
2022-12-08T18:34:16.592Z,81.70
2022-12-08T18:36:43.585Z,81.22
2022-12-08T18:39:29.613Z,81.08
2022-12-08T18:41:57.742Z,80.18
2022-12-08T18:44:25.454Z,79.26
2022-12-08T18:46:52.403Z,78.42
2022-12-08T18:49:20.160Z,77.96
2022-12-08T18:51:47.694Z,78.14
2022-12-08T18:54:14.916Z,77.99
2022-12-08T18:56:41.884Z,77.66
2022-12-08T18:59:12.012Z,78.00
2022-12-08T19:01:40.098Z,77.94
2022-12-08T19:04:27.760Z,77.86
2022-12-08T19:06:56.392Z,77.91
2022-12-08T19:09:24.647Z,78.21
2022-12-08T19:11:51.913Z,78.21
2022-12-08T19:14:22.714Z,78.47
2022-12-08T19:16:54.660Z,78.68
2022-12-08T19:19:21.788Z,78.40
2022-12-08T19:21:49.063Z,78.21
2022-12-08T19:24:16.461Z,77.39
2022-12-08T19:26:43.912Z,77.20
2022-12-08T19:29:12.098Z,76.47
2022-12-08T19:31:39.607Z,76.03
2022-12-08T19:34:07.073Z,75.78
2022-12-08T19:36:35.727Z,75.65
2022-12-08T19:39:23.035Z,75.80
2022-12-08T19:42:09.461Z,75.57
2022-12-08T19:47:58.342Z,75.21
2022-12-08T19:50:38.554Z,74.72
2022-12-08T19:53:13.268Z,74.44
2022-12-08T19:55:42.230Z,74.47
2022-12-08T19:58:10.233Z,74.34
2022-12-08T20:00:40.090Z,74.06
2022-12-08T20:03:07.268Z,74.14
2022-12-08T20:05:36.836Z,73.72
2022-12-08T20:08:04.046Z,73.52
2022-12-08T20:10:36.074Z,73.54
2022-12-08T20:13:22.309Z,73.81
2022-12-08T20:15:49.641Z,73.89
2022-12-08T20:18:17.906Z,74.11
2022-12-08T20:20:46.335Z,74.18
2022-12-08T20:23:14.517Z,74.57
2022-12-08T20:25:43.077Z,74.84
2022-12-08T20:28:10.636Z,75.35
2022-12-08T20:30:42.660Z,75.91
2022-12-08T20:33:12.882Z,76.10
2022-12-08T20:35:40.405Z,76.15
2022-12-08T20:38:07.584Z,76.66
2022-12-08T20:40:34.918Z,76.98
2022-12-08T20:43:02.111Z,77.13
2022-12-08T20:45:29.318Z,77.02
2022-12-08T20:47:56.710Z,76.76
2022-12-08T20:50:24.467Z,76.44
2022-12-08T20:52:52.614Z,76.02
2022-12-08T20:55:20.052Z,75.79
2022-12-08T20:57:47.154Z,75.56
2022-12-08T21:00:17.724Z,75.01
2022-12-08T21:02:49.753Z,74.64
2022-12-08T21:05:17.379Z,73.99
2022-12-08T21:07:44.653Z,73.48
2022-12-08T21:10:12.147Z,73.25
2022-12-08T21:12:40.258Z,73.48
2022-12-08T21:15:08.198Z,73.16
2022-12-08T21:17:37.171Z,72.74
2022-12-08T21:20:05.134Z,72.98
2022-12-08T21:22:32.801Z,72.83
2022-12-08T21:24:59.959Z,72.45
2022-12-08T21:27:27.541Z,72.59
2022-12-08T21:29:54.698Z,72.77
2022-12-08T21:32:26.997Z,72.90
2022-12-08T21:34:57.692Z,73.06
2022-12-08T21:37:25.229Z,72.93
2022-12-08T21:39:52.568Z,72.95
2022-12-08T21:42:38.460Z,72.97
2022-12-08T21:45:06.459Z,73.32
2022-12-08T21:47:34.313Z,73.14
2022-12-08T21:50:01.874Z,72.82
2022-12-08T21:52:29.112Z,72.65
2022-12-08T21:54:56.158Z,72.14
2022-12-08T21:57:23.372Z,72.08
2022-12-08T21:59:51.223Z,71.61
2022-12-08T22:02:22.383Z,71.36
2022-12-08T22:04:52.889Z,70.97
2022-12-08T22:07:21.642Z,70.77
2022-12-08T22:09:49.250Z,70.65
2022-12-08T22:12:16.993Z,70.69
2022-12-08T22:14:44.177Z,71.04
2022-12-08T22:17:11.368Z,71.04
2022-12-08T22:19:38.859Z,71.23
2022-12-08T22:22:05.958Z,71.77
2022-12-08T22:24:33.234Z,72.11
2022-12-08T22:27:00.413Z,72.00
2022-12-08T22:29:28.533Z,72.19
2022-12-08T22:31:56.064Z,72.57
2022-12-08T22:34:23.418Z,72.37
2022-12-08T22:36:50.853Z,73.00
2022-12-08T22:39:18.419Z,72.91
2022-12-08T22:41:45.858Z,73.09
2022-12-08T22:44:16.414Z,73.36
2022-12-08T22:46:43.672Z,74.14
2022-12-08T22:49:10.860Z,74.70
2022-12-08T22:51:39.477Z,75.26
2022-12-08T22:54:06.757Z,75.25
2022-12-08T22:56:33.695Z,75.68
2022-12-08T22:59:00.984Z,75.85
2022-12-08T23:01:31.259Z,75.95
2022-12-08T23:03:59.655Z,75.91
2022-12-08T23:06:28.028Z,75.82
2022-12-08T23:08:56.031Z,75.90
2022-12-08T23:11:25.769Z,74.99
2022-12-08T23:13:53.264Z,74.30
2022-12-08T23:16:23.509Z,74.01
2022-12-08T23:18:51.584Z,73.76
2022-12-08T23:21:20.375Z,73.43
2022-12-08T23:23:48.167Z,73.36
2022-12-08T23:26:19.897Z,73.37
2022-12-08T23:28:47.378Z,73.31
2022-12-08T23:31:15.354Z,73.78
2022-12-08T23:33:42.710Z,73.88
2022-12-08T23:36:11.468Z,74.07
2022-12-08T23:38:38.578Z,74.08
2022-12-08T23:41:08.177Z,74.07
2022-12-08T23:43:35.624Z,74.26
2022-12-08T23:46:03.578Z,74.35
2022-12-08T23:48:35.022Z,74.24
2022-12-08T23:51:02.308Z,74.42
2022-12-08T23:53:30.712Z,74.50
2022-12-08T23:56:02.292Z,74.41
2022-12-08T23:58:33.419Z,74.08
